Latest Coastal Weather Observations for Creal Reef

IDQ60701

Issued at 12:55 am EST Thursday 28 August 2014 (issued every 10 minutes, with the page automatically refreshed every 10 minutes)

About coastal observations | Map of coastal stations | Coastal observations for QLD | Marine services | Other Formats
Station Details ID: 200736 Name: CREAL REEF Lat: -20.53 Lon: 150.38 Height: 1.7 m
Data from the previous 72 hours. | See also: Recent months for locations in Queensland
Date/Time
EST
Temp

°C
Wind Pressure Rain
since 9am
mm
Weather Cloud Vis
km
Sea
Height
m
Swell
Dir
 
Speed
knots
Gust
knots
hPa Trend Height
m
Period
s
Dir
28/12:30am 21.0 NNW 3 4 1016.8 - - - - - - - - -
28/12:20am 21.1 NNW 4 - 1016.8 - - - - - - - - -
28/12:00am 21.1 N 3 4 1017.1 - - - - - - - - -
 
Date/Time
EST
Temp

°C
Wind Pressure Rain
since 9am
mm
Weather Cloud Vis
km
Sea
Height
m
Swell
Dir
 
Speed
knots
Gust
knots
hPa Trend Height
m
Period
s
Dir
27/11:30pm 21.1 CALM 0 0 1017.0 - - - - - - - - -
27/11:20pm 21.0 CALM 0 - 1017.0 - - - - - - - - -
27/11:00pm 21.0 E 1 3 1017.1 - - - - - - - - -
27/10:30pm 21.0 E 3 4 1017.0 - - - - - - - - -
27/10:20pm 21.1 E 4 - 1016.9 - - - - - - - - -
27/10:00pm 21.2 E 3 4 1017.0 - - - - - - - - -
27/09:30pm 21.2 SE 5 7 1016.8 - - - - - - - - -
27/09:20pm 21.2 SE 6 - 1016.7 - - - - - - - - -
27/09:00pm 21.1 SSE 7 8 1016.8 - - - - - - - - -
27/08:30pm 21.3 SSE 7 8 1016.5 - - - - - - - - -
27/08:20pm 21.1 SE 7 - 1016.4 - - - - - - - - -
27/08:00pm 21.1 SSE 6 7 1016.3 - - - - - - - - -
27/07:30pm 20.8 SSE 5 6 1016.0 - - - - - - - - -
27/07:20pm 20.9 SSE 6 - 1015.8 - - - - - - - - -
27/07:00pm 20.7 SSE 5 6 1015.6 - - - - - - - - -
27/06:30pm 20.6 SSE 5 7 1015.2 - - - - - - - - -
27/06:20pm 20.5 SSE 5 - 1015.0 - - - - - - - - -
27/06:00pm 20.4 SSE 5 6 1014.9 - - - - - - - - -
27/05:30pm 20.5 SSW 6 8 1014.6 - - - - - - - - -
27/05:20pm 20.5 SSW 7 - 1014.4 - - - - - - - - -
27/05:00pm 20.4 SSW 9 11 1014.4 - - - - - - - - -
27/04:30pm 20.6 SSW 11 12 1014.2 - - - - - - - - -
27/04:20pm 20.8 SSW 11 - 1014.1 - - - - - - - - -
27/04:00pm 20.7 SSW 11 13 1014.1 - - - - - - - - -
27/03:30pm 21.7 SW 10 12 1014.2 - - - - - - - - -
27/03:20pm 21.7 WSW 10 - 1014.1 - - - - - - - - -
27/03:00pm 21.6 W 9 11 1014.2 - - - - - - - - -
27/02:30pm 21.3 W 9 10 1014.3 - - - - - - - - -
27/02:20pm 21.5 W 8 - 1014.3 - - - - - - - - -
27/02:00pm 21.2 W 9 11 1014.6 - - - - - - - - -
27/01:30pm 21.1 W 8 10 1014.8 - - - - - - - - -
27/01:20pm 21.1 WSW 9 - 1014.8 - - - - - - - - -
27/01:00pm 21.3 WSW 10 12 1015.3 - - - - - - - - -
27/12:30pm 21.2 W 9 11 1015.6 - - - - - - - - -
27/12:20pm 21.3 W 10 - 1015.7 - - - - - - - - -
27/12:00pm 21.3 W 9 11 1016.0 - - - - - - - - -
27/11:30am 21.5 W 9 11 1016.4 - - - - - - - - -
27/11:20am 21.5 WSW 10 - 1016.4 - - - - - - - - -
27/11:00am 21.5 W 10 11 1016.8 - - - - - - - - -
27/10:30am 21.6 W 9 11 1017.2 - - - - - - - - -
27/10:20am 21.7 W 9 - 1017.1 - - - - - - - - -
27/10:00am 21.6 W 8 11 1017.3 - - - - - - - - -
27/09:30am 21.8 W 8 9 1017.5 - - - - - - - - -
27/09:20am 21.8 W 8 - 1017.4 - - - - - - - - -
27/09:00am 21.6 W 9 11 1017.5 - - - - - - - - -
27/08:30am 21.8 W 8 11 1017.3 - - - - - - - - -
27/08:20am 21.7 W 8 - 1017.1 - - - - - - - - -
27/08:00am 21.7 W 9 11 1017.1 - - - - - - - - -
27/07:30am 21.6 W 9 11 1016.7 - - - - - - - - -
27/07:20am 21.6 W 10 - 1016.5 - - - - - - - - -
27/07:00am 21.4 W 9 11 1016.3 - - - - - - - - -
27/06:30am 21.1 W 8 10 1015.7 - - - - - - - - -
27/06:20am 21.0 W 8 - 1015.5 - - - - - - - - -
27/06:00am 21.0 W 7 8 1015.4 - - - - - - - - -
27/05:30am 21.0 W 7 8 1015.1 - - - - - - - - -
27/05:20am 21.2 WNW 6 - 1014.9 - - - - - - - - -
27/05:00am 21.1 WNW 6 7 1015.0 - - - - - - - - -
27/04:30am 21.1 WNW 5 6 1014.7 - - - - - - - - -
27/04:20am 21.1 W 4 - 1014.6 - - - - - - - - -
27/04:00am 21.1 NW 3 4 1014.6 - - - - - - - - -
27/03:30am 21.3 NE 7 8 1014.4 - - - - - - - - -
27/03:20am 21.3 NNE 8 - 1014.3 - - - - - - - - -
27/03:00am 21.3 NNE 5 7 1014.5 - - - - - - - - -
27/02:30am 21.3 NNE 6 7 1014.8 - - - - - - - - -
27/02:20am 21.3 NE 8 - 1014.6 - - - - - - - - -
27/02:00am 21.3 NE 8 10 1014.9 - - - - - - - - -
27/01:30am 21.3 NE 8 9 1015.3 - - - - - - - - -
27/01:20am 21.2 NE 7 - 1015.3 - - - - - - - - -
27/01:00am 21.2 NE 7 9 1015.6 - - - - - - - - -
27/12:30am 21.1 NE 8 9 1015.9 - - - - - - - - -
27/12:20am 21.1 NE 7 - 1016.0 - - - - - - - - -
27/12:00am 21.1 NE 9 10 1016.2 - - - - - - - - -
 
Date/Time
EST
Temp

°C
Wind Pressure Rain
since 9am
mm
Weather Cloud Vis
km
Sea
Height
m
Swell
Dir
 
Speed
knots
Gust
knots
hPa Trend Height
m
Period
s
Dir
26/11:30pm 21.1 NE 9 11 1016.3 - - - - - - - - -
26/11:20pm 20.9 ENE 11 - 1016.2 - - - - - - - - -
26/11:00pm 20.8 ENE 10 12 1016.5 - - - - - - - - -
26/10:30pm 20.7 NE 10 11 1016.6 - - - - - - - - -
26/10:20pm 21.0 ENE 10 - 1016.6 - - - - - - - - -
26/10:00pm 20.9 ENE 10 12 1016.8 - - - - - - - - -
26/09:30pm 20.9 ENE 11 13 1016.7 - - - - - - - - -
26/09:20pm 20.9 ENE 11 - 1016.6 - - - - - - - - -
26/09:00pm 20.9 E 11 13 1016.8 - - - - - - - - -
26/08:30pm 20.7 E 11 12 1016.7 - - - - - - - - -
26/08:20pm 20.9 E 11 - 1016.5 - - - - - - - - -
26/08:00pm 20.8 E 11 13 1016.5 - - - - - - - - -
26/07:30pm 20.7 E 10 12 1016.2 - - - - - - - - -
26/07:20pm 20.6 E 10 - 1016.0 - - - - - - - - -
26/07:00pm 20.4 ESE 10 12 1016.0 - - - - - - - - -
26/06:30pm 20.4 ESE 10 12 1015.9 - - - - - - - - -
26/06:20pm 20.5 SE 10 - 1015.7 - - - - - - - - -
26/06:00pm 20.7 SSE 9 11 1015.7 - - - - - - - - -
26/05:30pm 20.6 S 11 12 1015.4 - - - - - - - - -
26/05:20pm 20.8 S 11 - 1015.2 - - - - - - - - -
26/05:00pm 20.8 S 11 13 1015.1 - - - - - - - - -
26/04:30pm 21.1 S 11 13 1015.0 - - - - - - - - -
26/04:20pm 20.9 SSE 11 - 1014.8 - - - - - - - - -
26/04:00pm 21.0 S 12 14 1014.8 - - - - - - - - -
26/03:30pm 21.2 SSE 10 12 1014.8 - - - - - - - - -
26/03:20pm 21.1 SSE 11 - 1014.6 - - - - - - - - -
26/03:00pm 21.2 SSE 11 13 1014.8 - - - - - - - - -
26/02:30pm 21.1 SSE 10 12 1015.0 - - - - - - - - -
26/02:20pm 21.0 SSE 10 - 1014.9 - - - - - - - - -
26/02:00pm 21.0 S 11 14 1015.1 - - - - - - - - -
26/01:30pm 21.0 S 13 15 1015.3 - - - - - - - - -
26/01:20pm 21.2 S 13 - 1015.4 - - - - - - - - -
26/01:00pm 21.0 S 13 15 1015.7 - - - - - - - - -
26/12:30pm 21.3 S 12 14 1016.0 - - - - - - - - -
26/12:20pm 21.0 S 13 - 1016.0 - - - - - - - - -
26/12:00pm 21.0 S 13 15 1016.5 - - - - - - - - -
26/11:30am 21.2 S 14 16 1016.9 - - - - - - - - -
26/11:20am 21.2 S 14 - 1017.0 - - - - - - - - -
26/11:00am 21.3 S 14 16 1017.4 - - - - - - - - -
26/10:30am 21.2 SSE 13 16 1017.5 - - - - - - - - -
26/10:20am 21.3 SSE 14 - 1017.5 - - - - - - - - -
26/10:00am 21.3 SSE 13 17 1017.7 - - - - - - - - -
26/09:30am 21.4 SSE 13 16 1017.8 - - - - - - - - -
26/09:20am 21.5 SSE 14 - 1017.7 - - - - - - - - -
26/09:00am 21.3 SSE 14 16 1017.7 - - - - - - - - -
26/08:30am 21.3 SSE 15 17 1017.4 - - - - - - - - -
26/08:20am 21.2 SSE 14 - 1017.2 - - - - - - - - -
26/08:00am 21.2 SSE 14 17 1017.1 - - - - - - - - -
26/07:30am 21.0 SSE 14 18 1016.9 - - - - - - - - -
26/07:20am 21.2 SSE 15 - 1016.7 - - - - - - - - -
26/07:00am 21.1 SSE 16 18 1016.7 - - - - - - - - -
26/06:30am 20.8 SSE 14 18 1016.4 - - - - - - - - -
26/06:20am 20.8 SSE 14 - 1016.3 - - - - - - - - -
26/06:00am 20.9 SSE 14 18 1016.0 - - - - - - - - -
26/05:30am 20.8 SSE 14 18 1015.8 - - - - - - - - -
26/05:20am 20.8 SSE 15 - 1015.5 - - - - - - - - -
26/05:00am 20.8 SSE 13 16 1015.5 - - - - - - - - -
26/04:30am 20.8 SSE 14 17 1015.2 - - - - - - - - -
26/04:20am 21.0 SSE 14 - 1015.1 - - - - - - - - -
26/04:00am 20.9 SSE 14 18 1015.3 - - - - - - - - -
26/03:30am 21.0 SSE 15 18 1015.2 - - - - - - - - -
26/03:20am 21.1 SSE 13 - 1015.2 - - - - - - - - -
26/03:00am 21.3 SSE 15 18 1015.5 - - - - - - - - -
26/02:30am 21.2 SSE 14 18 1015.7 - - - - - - - - -
26/02:20am 21.3 SSE 13 - 1015.7 - - - - - - - - -
26/02:00am 21.5 SSE 13 17 1016.0 - - - - - - - - -
26/01:30am 21.3 SSE 13 17 1016.3 - - - - - - - - -
26/01:20am 21.3 SSE 13 - 1016.2 - - - - - - - - -
26/01:00am 21.3 SSE 13 17 1016.4 - - - - - - - - -
26/12:30am 21.4 SSE 14 19 1016.7 - - - - - - - - -
26/12:20am 21.2 SSE 14 - 1016.7 - - - - - - - - -
26/12:00am 21.3 SE 13 16 1017.1 - - - - - - - - -
 
Date/Time
EST
Temp

°C
Wind Pressure Rain
since 9am
mm
Weather Cloud Vis
km
Sea
Height
m
Swell
Dir
 
Speed
knots
Gust
knots
hPa Trend Height
m
Period
s
Dir
25/11:30pm 21.5 SE 13 17 1017.3 - - - - - - - - -
25/11:20pm 21.1 SE 15 - 1017.2 - - - - - - - - -
25/11:00pm 21.1 SE 14 16 1017.3 - - - - - - - - -
25/10:30pm 21.1 SE 15 17 1017.6 - - - - - - - - -
25/10:20pm 21.2 SE 15 - 1017.6 - - - - - - - - -
25/10:00pm 21.1 SE 13 15 1017.9 - - - - - - - - -
25/09:30pm 20.8 SE 14 16 1018.0 - - - - - - - - -
25/09:20pm 20.8 SE 14 - 1018.0 - - - - - - - - -
25/09:00pm 20.7 SE 14 16 1018.1 - - - - - - - - -
25/08:30pm 20.8 SE 14 16 1018.2 - - - - - - - - -
25/08:20pm 20.6 SE 15 - 1018.0 - - - - - - - - -
25/08:00pm 20.9 SE 15 18 1018.0 - - - - - - - - -
25/07:30pm 20.7 SSE 15 19 1017.6 - - - - - - - - -
25/07:20pm 20.6 SSE 15 - 1017.4 - - - - - - - - -
25/07:00pm 20.7 SSE 15 19 1017.3 - - - - - - - - -
25/06:30pm 20.8 SSE 17 21 1017.3 - - - - - - - - -
25/06:20pm 20.8 SSE 17 - 1017.0 - - - - - - - - -
25/06:00pm 20.7 SSE 18 21 1016.9 - - - - - - - - -
25/05:30pm 20.9 S 20 23 1016.6 - - - - - - - - -
25/05:20pm 21.1 S 20 - 1016.4 - - - - - - - - -
25/05:00pm 21.3 S 20 23 1016.3 - - - - - - - - -
25/04:30pm 21.3 S 20 23 1016.2 - - - - - - - - -
25/04:20pm 21.3 S 20 - 1016.0 - - - - - - - - -
25/04:00pm 20.9 S 19 22 1016.2 - - - - - - - - -
25/03:30pm 20.9 S 21 24 1016.3 - - - - - - - - -
25/03:20pm 20.9 S 19 - 1016.1 - - - - - - - - -
25/03:00pm 20.8 S 19 22 1016.5 - - - - - - - - -
25/02:30pm 20.8 S 18 22 1016.8 - - - - - - - - -
25/02:20pm 20.6 S 19 - 1016.7 - - - - - - - - -
25/02:00pm 20.5 S 18 22 1016.9 - - - - - - - - -
25/01:30pm 20.4 S 18 21 1017.1 - - - - - - - - -
25/01:20pm 20.4 S 18 - 1017.1 - - - - - - - - -
25/01:00pm 20.5 S 19 23 1017.4 - - - - - - - - -
25/12:30pm 20.5 S 20 22 1017.8 - - - - - - - - -
25/12:20pm 20.5 S 20 - 1017.8 - - - - - - - - -
25/12:00pm 20.4 S 19 22 1018.3 - - - - - - - - -
25/11:30am 20.6 S 19 22 1018.6 - - - - - - - - -
25/11:20am 20.7 S 20 - 1018.6 - - - - - - - - -
25/11:00am 20.6 S 20 24 1018.9 - - - - - - - - -
25/10:30am 20.5 S 20 24 1019.3 - - - - - - - - -
25/10:20am 20.6 S 21 - 1019.2 - - - - - - - - -
25/10:00am 20.8 S 22 25 1019.3 - - - - - - - - -
25/09:30am 20.6 S 23 27 1019.4 - - - - - - - - -
25/09:20am 20.6 SSE 22 - 1019.3 - - - - - - - - -
25/09:00am 20.9 S 21 25 1019.4 - - - - - - - - -
25/08:30am 20.8 SSE 20 26 1019.4 - - - - - - - - -
25/08:20am 21.1 SSE 22 - 1019.2 - - - - - - - - -
25/08:00am 20.9 SSE 23 26 1019.0 - - - - - - - - -
25/07:30am 21.0 SSE 21 26 1018.6 - - - - - - - - -
25/07:20am 20.9 SSE 23 - 1018.5 - - - - - - - - -
25/07:00am 20.7 SSE 22 27 1018.3 - - - - - - - - -
25/06:30am 20.8 SSE 23 27 1018.0 - - - - - - - - -
25/06:20am 20.6 SSE 21 - 1017.6 - - - - - - - - -
25/06:00am 20.7 SSE 21 26 1017.6 - - - - - - - - -
25/05:30am 20.7 SSE 22 26 1017.4 - - - - - - - - -
25/05:20am 20.6 SSE 21 - 1017.1 - - - - - - - - -
25/05:00am 20.8 SSE 24 28 1017.0 - - - - - - - - -
25/04:30am 20.7 SSE 22 28 1016.9 - - - - - - - - -
25/04:20am 20.8 SSE 20 - 1016.7 - - - - - - - - -
25/04:00am 20.8 SSE 20 27 1016.8 - - - - - - - - -
25/03:30am 20.8 SSE 20 26 1016.7 - - - - - - - - -
25/03:20am 20.8 SSE 21 - 1016.5 - - - - - - - - -
25/03:00am 20.8 SSE 21 27 1016.8 - - - - - - - - -
25/02:30am 21.0 SSE 23 30 1017.1 - - - - - - - - -
25/02:20am 20.9 SSE 20 - 1017.2 - - - - - - - - -
25/02:00am 21.1 SSE 22 28 1017.6 - - - - - - - - -
25/01:30am 21.2 SSE 21 27 1017.7 - - - - - - - - -
25/01:20am 21.2 SSE 21 - 1017.6 - - - - - - - - -
25/01:00am 21.3 SSE 22 27 1017.9 - - - - - - - - -

Other Formats:

Comma delimited format used in spreadsheet applications
http://www.bom.gov.au/fwo/IDQ60701/IDQ60701.94371.axf

JavaScript Object Notation format (JSON) in row-major order
http://www.bom.gov.au/fwo/IDQ60701/IDQ60701.94371.json